Time;durP1;ratioP1;P1;durP2;ratioP2;P2;SDS_P1;SDS_P2;PMS_P1;PMS_P2;Temp;Humidity;BMP_temperature;BMP_pressure;BME280_temperature;BME280_humidity;BME280_pressure;Samples;Min_cycle;Max_cycle;Signal;HPM_P1;HPM_P2
2021/08/21 00:01:32;;;;;;;12.07;10.85;;;;;;;19.97;90.92;100335.00;1730199;80;20907;-77
2021/08/21 00:03:59;;;;;;;17.85;11.95;;;;;;;19.98;90.92;100339.31;1748501;81;21163;-77
2021/08/21 00:06:26;;;;;;;13.95;11.97;;;;;;;19.98;90.92;100339.31;1730245;81;20996;-77
2021/08/21 00:08:52;;;;;;;17.23;12.58;;;;;;;19.98;91.01;100340.14;1720919;81;20962;-77
2021/08/21 00:11:20;;;;;;;13.20;11.75;;;;;;;19.98;91.07;100338.80;1706495;83;20956;-78
2021/08/21 00:13:47;;;;;;;13.38;10.88;;;;;;;20.00;91.04;100340.81;1733148;81;21569;-78
2021/08/21 00:16:14;;;;;;;16.82;11.80;;;;;;;20.01;90.96;100340.31;1726479;81;21653;-78
2021/08/21 00:18:41;;;;;;;13.40;12.10;;;;;;;20.01;90.94;100337.64;1733449;80;20982;-77
2021/08/21 00:21:13;;;;;;;16.25;12.80;;;;;;;20.01;90.95;100345.63;1719579;80;21007;-79
2021/08/21 00:23:38;;;;;;;12.63;11.40;;;;;;;20.01;90.89;100345.16;1728109;80;21410;-80
2021/08/21 00:26:04;;;;;;;14.50;11.20;;;;;;;20.01;90.85;100347.82;1724323;81;20907;-80
2021/08/21 00:28:32;;;;;;;13.65;11.57;;;;;;;20.02;90.84;100341.48;1738358;81;21127;-79
2021/08/21 00:30:58;;;;;;;12.28;11.08;;;;;;;20.02;90.81;100343.33;1739763;81;20891;-79
2021/08/21 00:33:25;;;;;;;12.88;11.08;;;;;;;20.02;90.90;100337.50;1718393;81;20877;-77
2021/08/21 00:35:52;;;;;;;13.03;11.10;;;;;;;20.04;90.76;100345.33;1735472;80;20915;-77
2021/08/21 00:38:20;;;;;;;13.45;10.75;;;;;;;20.04;90.60;100341.34;1728873;80;20873;-77
2021/08/21 00:40:47;;;;;;;15.32;11.68;;;;;;;20.04;90.61;100342.67;1744798;82;21551;-78
2021/08/21 00:43:17;;;;;;;16.75;12.35;;;;;;;20.02;90.57;100342.81;1712974;80;21146;-77
2021/08/21 00:45:44;;;;;;;13.20;11.38;;;;;;;20.02;90.47;100334.01;1732862;80;21607;-78
2021/08/21 00:48:10;;;;;;;15.90;12.28;;;;;;;20.02;90.48;100338.83;1736788;81;21581;-78
2021/08/21 00:50:37;;;;;;;12.93;11.48;;;;;;;20.03;90.42;100343.17;1731670;81;21049;-79
2021/08/21 00:53:04;;;;;;;17.30;12.07;;;;;;;20.05;90.33;100344.32;1729097;80;21247;-78
2021/08/21 00:55:31;;;;;;;14.30;10.32;;;;;;;20.03;90.17;100335.19;1737254;80;21442;-77
2021/08/21 00:57:58;;;;;;;13.83;10.55;;;;;;;20.02;90.03;100336.67;1733462;80;20960;-76
2021/08/21 01:00:25;;;;;;;11.90;10.40;;;;;;;20.01;90.00;100342.50;1744983;82;20928;-78
2021/08/21 01:02:52;;;;;;;12.33;11.00;;;;;;;19.99;89.99;100335.16;1726036;82;20909;-78
2021/08/21 01:05:20;;;;;;;12.15;10.65;;;;;;;19.98;89.92;100338.80;1734430;80;22167;-78
2021/08/21 01:07:49;;;;;;;14.98;11.20;;;;;;;19.97;90.00;100338.98;1738870;80;20911;-76
2021/08/21 01:10:19;;;;;;;11.75;10.58;;;;;;;19.97;90.01;100342.48;1726332;80;22460;-77
2021/08/21 01:12:53;;;;;;;14.07;11.45;;;;;;;19.96;89.89;100331.98;1731129;81;20920;-77
2021/08/21 01:15:21;;;;;;;12.40;11.08;;;;;;;19.96;89.96;100335.97;1743644;82;21010;-79
2021/08/21 01:17:54;;;;;;;14.43;11.28;;;;;;;19.95;89.95;100343.13;1728795;80;21146;-79
2021/08/21 01:20:22;;;;;;;12.15;10.95;;;;;;;19.94;90.04;100346.77;1739852;80;21464;-78
2021/08/21 01:22:48;;;;;;;12.05;10.82;;;;;;;19.93;89.98;100341.13;1727131;81;21027;-77
2021/08/21 01:25:24;;;;;;;15.88;10.23;;;;;;;19.92;90.09;100343.94;1725488;80;20932;-78
2021/08/21 01:27:51;;;;;;;17.65;10.85;;;;;;;19.90;90.14;100341.45;1739246;81;21059;-79
2021/08/21 01:30:20;;;;;;;15.83;11.12;;;;;;;19.89;90.14;100343.77;1729751;82;21570;-77
2021/08/21 01:32:58;;;;;;;12.03;8.95;;;;;;;19.88;90.13;100337.61;1737709;82;20971;-78
2021/08/21 01:35:26;;;;;;;16.20;11.12;;;;;;;19.87;89.83;100334.59;1739277;82;20905;-76
2021/08/21 01:37:53;;;;;;;13.35;9.33;;;;;;;19.85;89.51;100341.08;1748486;82;21133;-78
2021/08/21 01:40:34;;;;;;;13.95;10.32;;;;;;;19.84;89.25;100342.08;1732382;81;20915;-77
2021/08/21 01:43:06;;;;;;;14.98;10.20;;;;;;;19.81;89.14;100340.58;1729289;82;21542;-77
2021/08/21 01:45:35;;;;;;;12.90;9.30;;;;;;;19.78;89.09;100340.05;1715439;80;21023;-76
2021/08/21 01:48:02;;;;;;;15.65;10.63;;;;;;;19.76;89.09;100342.03;1728625;81;20986;-77
2021/08/21 01:50:29;;;;;;;10.53;9.40;;;;;;;19.74;88.95;100336.03;1732272;81;21581;-78
2021/08/21 01:52:56;;;;;;;10.98;9.10;;;;;;;19.72;88.93;100330.03;1714260;81;21102;-77
2021/08/21 01:55:25;;;;;;;11.97;9.93;;;;;;;19.70;88.85;100330.69;1715945;82;21980;-78
2021/08/21 01:57:53;;;;;;;13.48;10.78;;;;;;;19.68;88.92;100332.16;1727370;81;21420;-77
2021/08/21 02:00:31;;;;;;;9.98;8.73;;;;;;;19.67;89.00;100334.47;1740126;82;21037;-77
2021/08/21 02:02:58;;;;;;;12.13;9.58;;;;;;;19.67;88.93;100331.81;1732548;81;21484;-77
2021/08/21 02:05:27;;;;;;;11.30;10.05;;;;;;;19.65;88.77;100331.98;1743060;82;20939;-78
2021/08/21 02:07:54;;;;;;;10.63;9.55;;;;;;;19.64;88.77;100333.47;1737297;82;21629;-78
2021/08/21 02:10:21;;;;;;;12.63;9.95;;;;;;;19.61;88.73;100338.61;1696870;81;20987;-78
2021/08/21 02:12:49;;;;;;;11.57;9.78;;;;;;;19.59;88.84;100341.92;1734370;81;20987;-77
2021/08/21 02:15:18;;;;;;;12.33;8.78;;;;;;;19.57;88.79;100341.25;1669052;83;20953;-78
2021/08/21 02:17:51;;;;;;;13.15;8.93;;;;;;;19.56;88.66;100340.89;1698883;83;21501;-78
2021/08/21 02:20:23;;;;;;;10.48;8.10;;;;;;;19.52;88.59;100344.02;1668364;82;21121;-77
2021/08/21 02:22:51;;;;;;;9.33;8.18;;;;;;;19.49;88.61;100345.67;1682360;83;21469;-78
2021/08/21 02:25:19;;;;;;;11.53;8.48;;;;;;;19.46;88.70;100347.66;1740364;80;21025;-77
2021/08/21 02:28:06;;;;;;;11.22;9.00;;;;;;;19.44;88.75;100341.66;1729373;82;20935;-77
2021/08/21 02:30:28;;;;;;;12.28;7.83;;;;;;;19.45;88.88;100339.83;1736842;80;20832;-76
2021/08/21 02:32:55;;;;;;;10.80;9.13;;;;;;;19.44;88.69;100346.98;1707638;82;21635;-76
2021/08/21 02:35:22;;;;;;;10.03;7.95;;;;;;;19.43;88.59;100346.66;1727487;82;21065;-77
2021/08/21 02:37:49;;;;;;;10.40;8.10;;;;;;;19.44;88.60;100348.30;1718044;82;21022;-76
2021/08/21 02:40:15;;;;;;;11.03;7.72;;;;;;;19.42;88.38;100348.95;1734502;80;21006;-76
2021/08/21 02:42:44;;;;;;;16.10;10.23;;;;;;;19.40;88.17;100349.60;1658481;84;20973;-76
2021/08/21 02:45:11;;;;;;;8.50;7.22;;;;;;;19.37;88.00;100359.73;1714363;82;21525;-76
2021/08/21 02:47:37;;;;;;;10.25;7.90;;;;;;;19.35;87.93;100351.08;1719741;80;21526;-77
2021/08/21 02:50:07;;;;;;;10.95;7.95;;;;;;;19.32;87.81;100353.56;1723595;81;20960;-76
2021/08/21 02:52:34;;;;;;;10.43;7.97;;;;;;;19.30;87.86;100358.66;1729768;80;20944;-76
2021/08/21 02:55:04;;;;;;;10.05;8.18;;;;;;;19.28;87.82;100358.02;1728463;80;20836;-75
2021/08/21 02:57:32;;;;;;;15.53;7.87;;;;;;;19.28;87.71;100365.48;1724717;80;21786;-77
2021/08/21 02:59:59;;;;;;;12.58;8.10;;;;;;;19.26;87.68;100362.98;1675224;82;20958;-77
2021/08/21 03:02:27;;;;;;;9.83;8.48;;;;;;;19.26;87.71;100366.96;1677902;82;20941;-78
2021/08/21 03:04:54;;;;;;;10.15;7.97;;;;;;;19.24;87.74;100372.92;1740400;81;21488;-78
2021/08/21 03:07:23;;;;;;;12.40;7.70;;;;;;;19.23;87.68;100370.41;1727033;81;21450;-77
2021/08/21 03:09:53;;;;;;;12.07;9.08;;;;;;;19.22;87.68;100368.76;1704243;82;21585;-77
2021/08/21 03:13:50;;;;;;;11.43;7.65;;;;;;;19.26;87.72;100374.11;1816422;79;22467;-77
2021/08/21 03:16:17;;;;;;;11.88;8.28;;;;;;;19.20;87.66;100373.39;1789667;80;20907;-77
2021/08/21 03:18:45;;;;;;;10.98;7.67;;;;;;;19.20;87.65;100378.71;1789517;80;21140;-76
2021/08/21 03:21:12;;;;;;;13.18;7.92;;;;;;;19.19;87.62;100377.88;1754646;81;21381;-77
2021/08/21 03:23:39;;;;;;;9.53;7.45;;;;;;;19.19;87.74;100375.72;1742209;82;20944;-77
2021/08/21 03:26:07;;;;;;;11.57;8.15;;;;;;;19.17;87.72;100385.17;1724915;82;20944;-76
2021/08/21 03:28:34;;;;;;;7.83;7.08;;;;;;;19.17;87.62;100381.69;1724969;81;20915;-75
2021/08/21 03:31:02;;;;;;;11.10;7.62;;;;;;;19.16;87.53;100384.81;1754812;81;21105;-76
2021/08/21 03:33:29;;;;;;;7.22;6.37;;;;;;;19.14;87.43;100389.48;1754517;81;20911;-76
2021/08/21 03:35:56;;;;;;;17.55;12.98;;;;;;;19.12;87.56;100382.15;1755456;81;20998;-77
2021/08/21 03:38:23;;;;;;;13.18;7.75;;;;;;;19.12;87.57;100390.13;1754673;81;20964;-78
2021/08/21 03:40:55;;;;;;;7.83;7.05;;;;;;;19.13;87.54;100378.48;1752668;81;20884;-80
2021/08/21 03:43:22;;;;;;;12.35;6.62;;;;;;;19.12;87.52;100386.61;1754852;81;21134;-78
2021/08/21 03:45:49;;;;;;;12.28;7.60;;;;;;;19.11;87.24;100385.78;1754929;81;21029;-76
2021/08/21 03:48:17;;;;;;;9.18;6.67;;;;;;;19.10;87.24;100386.78;1754814;81;21504;-76
2021/08/21 03:50:43;;;;;;;7.20;5.70;;;;;;;19.10;87.14;100390.77;1755041;81;20932;-76
2021/08/21 03:53:11;;;;;;;7.58;5.40;;;;;;;19.09;87.07;100392.24;1754929;81;21406;-75
2021/08/21 03:55:41;;;;;;;12.03;6.53;;;;;;;19.08;87.07;100392.74;1753751;81;21040;-76
2021/08/21 03:58:08;;;;;;;10.68;5.90;;;;;;;19.07;87.07;100398.20;1754614;81;21536;-76
2021/08/21 04:00:35;;;;;;;7.95;5.58;;;;;;;19.06;86.99;100388.07;1754791;81;20949;-76
2021/08/21 04:03:05;;;;;;;9.15;5.37;;;;;;;19.04;86.70;100397.52;1753568;81;21406;-77
2021/08/21 04:05:33;;;;;;;8.75;5.78;;;;;;;19.03;86.57;100397.19;1754857;81;20932;-76
2021/08/21 04:08:00;;;;;;;8.15;5.35;;;;;;;19.02;86.41;100387.53;1727053;81;21110;-76
2021/08/21 04:10:27;;;;;;;6.87;5.33;;;;;;;19.03;86.60;100383.90;1758071;81;20987;-76
2021/08/21 04:12:56;;;;;;;6.42;4.60;;;;;;;19.04;86.36;100387.39;1752001;81;20944;-77
2021/08/21 04:15:24;;;;;;;6.50;5.83;;;;;;;19.03;86.16;100383.90;1746862;82;20893;-76
2021/08/21 04:17:51;;;;;;;6.12;5.05;;;;;;;19.04;86.10;100384.73;1746803;82;20944;-75
2021/08/21 04:20:19;;;;;;;6.00;5.47;;;;;;;19.03;86.13;100379.91;1746667;82;21506;-77
2021/08/21 04:22:46;;;;;;;6.62;5.50;;;;;;;19.04;86.14;100381.57;1746569;82;20892;-79
2021/08/21 04:25:13;;;;;;;8.30;5.00;;;;;;;19.07;86.21;100375.61;1746249;82;20924;-79
2021/08/21 04:27:40;;;;;;;10.93;5.05;;;;;;;19.09;86.25;100380.28;1746221;82;20991;-80
2021/08/21 04:30:08;;;;;;;5.67;5.08;;;;;;;19.11;86.09;100380.97;1746356;82;20936;-79
2021/08/21 04:32:35;;;;;;;6.67;5.45;;;;;;;19.12;85.92;100384.81;1746110;82;21790;-79
2021/08/21 04:35:03;;;;;;;6.85;5.08;;;;;;;19.16;85.66;100383.98;1746321;82;20980;-80
2021/08/21 04:37:30;;;;;;;6.35;4.30;;;;;;;19.17;85.38;100381.19;1746248;82;20968;-79
2021/08/21 04:39:58;;;;;;;4.50;4.10;;;;;;;19.20;85.27;100388.02;1746113;82;20988;-80
2021/08/21 04:42:27;;;;;;;5.22;4.75;;;;;;;19.22;85.21;100387.37;1746201;82;20947;-80
2021/08/21 04:44:59;;;;;;;5.05;4.60;;;;;;;19.25;84.84;100390.56;1746492;82;21113;-79
2021/08/21 04:47:23;;;;;;;4.50;4.10;;;;;;;19.30;84.84;100395.89;1745667;82;20932;-79
2021/08/21 04:49:50;;;;;;;5.67;4.65;;;;;;;19.31;84.41;100390.42;1746474;82;20893;-79
2021/08/21 04:52:17;;;;;;;5.55;4.28;;;;;;;19.34;84.37;100403.44;1746206;82;21018;-79
2021/08/21 04:54:44;;;;;;;7.95;4.70;;;;;;;19.36;84.28;100397.44;1746509;82;20853;-81
2021/08/21 04:57:15;;;;;;;5.95;4.05;;;;;;;19.41;84.06;100407.14;1746207;82;21154;-78
2021/08/21 04:59:43;;;;;;;4.47;4.12;;;;;;;19.46;84.21;100408.00;1741730;82;20897;-80
2021/08/21 05:02:13;;;;;;;9.80;4.78;;;;;;;19.50;83.92;100405.84;1746158;82;21026;-79
2021/08/21 05:04:40;;;;;;;5.30;4.80;;;;;;;19.55;83.51;100408.39;1746538;82;20991;-79
2021/08/21 05:07:07;;;;;;;9.35;4.45;;;;;;;19.61;83.05;100409.61;1746524;82;20991;-79
2021/08/21 05:09:35;;;;;;;7.50;4.62;;;;;;;19.66;82.83;100406.80;1746163;82;21182;-79
2021/08/21 05:12:05;;;;;;;4.80;4.05;;;;;;;19.73;82.45;100402.23;1715792;83;20889;-79
2021/08/21 05:14:35;;;;;;;3.98;3.58;;;;;;;19.80;82.10;100404.59;1774708;80;20885;-79
2021/08/21 05:17:05;;;;;;;7.05;5.35;;;;;;;19.85;81.54;100412.45;1738115;82;20928;-78
2021/08/21 05:19:52;;;;;;;4.80;4.25;;;;;;;19.92;81.31;100415.80;1775237;80;21421;-79
2021/08/21 05:22:39;;;;;;;5.12;3.90;;;;;;;19.95;81.26;100418.16;1774039;80;21583;-80
2021/08/21 05:24:56;;;;;;;4.75;4.03;;;;;;;20.00;80.57;100425.99;1773381;80;20892;-78
2021/08/21 05:27:24;;;;;;;5.65;4.35;;;;;;;20.05;80.39;100430.37;1775477;80;20936;-77
2021/08/21 05:29:51;;;;;;;6.28;4.45;;;;;;;20.14;80.06;100441.87;1753232;80;20948;-77
2021/08/21 05:32:18;;;;;;;5.62;4.10;;;;;;;20.22;80.19;100444.58;1775496;80;21437;-77
2021/08/21 05:34:45;;;;;;;6.28;4.60;;;;;;;20.31;79.77;100443.30;1775282;80;20913;-79
2021/08/21 05:37:13;;;;;;;7.75;5.70;;;;;;;20.40;79.32;100447.16;1717477;82;20908;-78
2021/08/21 05:39:41;;;;;;;8.25;5.40;;;;;;;20.49;78.92;100452.84;1775125;80;20932;-80
2021/08/21 05:42:08;;;;;;;9.15;4.78;;;;;;;20.56;78.86;100451.70;1775370;80;21484;-80
2021/08/21 05:44:35;;;;;;;5.65;5.15;;;;;;;20.63;78.63;100457.26;1775337;80;20923;-80
2021/08/21 05:47:02;;;;;;;5.20;4.70;;;;;;;20.68;78.55;100454.97;1775288;80;21080;-80
2021/08/21 05:49:30;;;;;;;7.20;4.50;;;;;;;20.74;78.44;100468.13;1775202;80;20944;-80
2021/08/21 05:51:57;;;;;;;5.00;4.47;;;;;;;20.79;77.54;100468.49;1775520;80;20971;-79
2021/08/21 05:54:26;;;;;;;8.28;4.50;;;;;;;20.83;77.36;100468.48;1775497;80;21432;-77
2021/08/21 05:56:57;;;;;;;7.65;4.80;;;;;;;20.86;77.59;100470.33;1776536;80;20913;-81
2021/08/21 05:59:24;;;;;;;7.35;5.20;;;;;;;20.89;76.88;100467.83;1775907;80;21978;-81
2021/08/21 06:01:52;;;;;;;6.08;4.75;;;;;;;20.93;76.73;100467.84;1775121;80;20929;-79
2021/08/21 06:04:19;;;;;;;5.25;4.30;;;;;;;20.98;76.54;100465.52;1775237;80;20992;-79
2021/08/21 06:06:46;;;;;;;9.93;4.70;;;;;;;21.03;76.38;100474.36;1753734;80;20960;-80
2021/08/21 06:09:17;;;;;;;6.17;4.22;;;;;;;21.07;75.68;100473.86;1775166;80;20889;-79
2021/08/21 06:11:43;;;;;;;5.30;4.55;;;;;;;21.11;74.78;100471.72;1738082;82;21324;-80
2021/08/21 06:14:10;;;;;;;8.40;4.55;;;;;;;21.15;74.24;100473.06;1781250;80;20888;-80
2021/08/21 06:16:39;;;;;;;5.62;4.00;;;;;;;21.16;73.75;100472.55;1783449;80;20940;-79
2021/08/21 06:19:07;;;;;;;6.65;4.42;;;;;;;21.16;73.28;100477.37;1783426;80;20935;-78
2021/08/21 06:21:34;;;;;;;5.05;4.17;;;;;;;21.18;72.96;100483.89;1783628;80;20872;-79
2021/08/21 06:24:01;;;;;;;5.30;3.95;;;;;;;21.20;72.85;100479.23;1783459;80;21129;-80
2021/08/21 06:26:29;;;;;;;3.98;3.67;;;;;;;21.22;73.25;100474.06;1783335;80;21559;-80
2021/08/21 06:28:56;;;;;;;7.25;4.12;;;;;;;21.27;73.71;100474.89;1783837;80;21420;-80
2021/08/21 06:31:22;;;;;;;14.58;4.50;;;;;;;21.33;73.74;100476.91;1783354;80;20931;-78
2021/08/21 06:33:50;;;;;;;5.12;3.77;;;;;;;21.46;73.41;100483.12;1783435;80;20974;-81
2021/08/21 06:36:17;;;;;;;5.12;4.25;;;;;;;21.62;72.65;100483.11;1783535;80;21319;-82
2021/08/21 06:38:43;;;;;;;8.30;4.37;;;;;;;21.90;72.15;100482.27;1783660;80;20892;-78
2021/08/21 06:41:10;;;;;;;5.37;3.40;;;;;;;22.18;71.13;100489.05;1783361;80;20896;-82
2021/08/21 06:43:38;;;;;;;4.95;3.58;;;;;;;22.42;70.00;100488.17;1783186;80;20995;-83
2021/08/21 06:46:12;;;;;;;4.72;3.77;;;;;;;22.59;69.66;100495.60;1783126;80;21351;-85
2021/08/21 06:48:39;;;;;;;4.33;3.42;;;;;;;22.69;68.70;100498.40;1783885;80;21101;-85
2021/08/21 06:51:06;;;;;;;4.97;4.30;;;;;;;22.73;67.74;100501.06;1783379;80;21401;-85
2021/08/21 06:53:35;;;;;;;5.40;4.42;;;;;;;22.76;67.03;100499.88;1783741;80;21409;-85
2021/08/21 06:56:02;;;;;;;4.28;3.87;;;;;;;22.76;67.04;100503.38;1783487;80;20924;-84
2021/08/21 06:58:30;;;;;;;8.30;4.03;;;;;;;22.73;66.93;100509.08;1783736;80;20947;-79
2021/08/21 07:01:00;;;;;;;5.30;4.17;;;;;;;22.71;67.20;100508.93;1783359;80;21063;-84
2021/08/21 07:03:26;;;;;;;4.40;3.90;;;;;;;22.73;66.98;100506.92;1783604;80;21390;-81
2021/08/21 07:05:53;;;;;;;6.30;4.53;;;;;;;22.76;67.46;100511.91;1782023;80;20995;-81
2021/08/21 07:08:20;;;;;;;5.37;4.25;;;;;;;22.84;67.78;100515.89;1781961;80;20943;-83
2021/08/21 07:10:47;;;;;;;5.10;3.92;;;;;;;22.90;67.06;100517.87;1781699;80;20931;-83
2021/08/21 07:13:15;;;;;;;5.20;4.30;;;;;;;22.91;66.40;100513.34;1781899;80;21764;-81
2021/08/21 07:15:44;;;;;;;4.95;4.40;;;;;;;22.92;65.99;100519.87;1775072;80;21445;-81
2021/08/21 07:18:11;;;;;;;5.70;4.30;;;;;;;22.89;65.89;100516.70;1775466;80;20920;-79
2021/08/21 07:20:38;;;;;;;7.87;3.65;;;;;;;22.87;66.74;100521.38;1774939;80;20940;-76
2021/08/21 07:23:04;;;;;;;4.55;4.22;;;;;;;22.94;66.67;100519.67;1775686;80;20920;-75
2021/08/21 07:25:32;;;;;;;5.05;4.58;;;;;;;23.07;66.49;100522.64;1775100;80;22245;-75
2021/08/21 07:27:59;;;;;;;7.40;4.08;;;;;;;23.25;65.82;100523.70;1775390;80;20876;-75
2021/08/21 07:30:26;;;;;;;5.22;4.58;;;;;;;23.50;65.17;100520.36;1774801;80;20940;-76
2021/08/21 07:32:53;;;;;;;5.50;4.40;;;;;;;23.70;64.42;100526.06;1775510;80;20849;-74
2021/08/21 07:35:21;;;;;;;4.80;3.62;;;;;;;23.86;63.54;100532.33;1775241;80;20987;-77
2021/08/21 07:37:48;;;;;;;4.45;4.10;;;;;;;23.99;63.18;100530.69;1775993;80;21097;-77
2021/08/21 07:40:15;;;;;;;6.33;3.70;;;;;;;24.29;62.97;100536.06;1775857;80;20885;-76
2021/08/21 07:42:42;;;;;;;6.80;4.33;;;;;;;24.73;61.79;100541.97;1775513;80;21501;-78
2021/08/21 07:45:12;;;;;;;5.08;3.95;;;;;;;25.23;60.59;100533.62;1775213;80;20933;-77
2021/08/21 07:47:39;;;;;;;6.62;4.03;;;;;;;25.76;58.94;100531.10;1775655;80;20918;-77
2021/08/21 07:50:07;;;;;;;5.45;4.15;;;;;;;26.24;57.08;100524.57;1775185;80;21126;-77
2021/08/21 07:52:35;;;;;;;5.42;3.10;;;;;;;26.66;56.30;100528.14;1775086;80;20937;-78
2021/08/21 07:55:02;;;;;;;7.20;3.92;;;;;;;27.17;54.54;100525.50;1775131;80;20904;-81
2021/08/21 07:57:29;;;;;;;3.90;3.40;;;;;;;27.58;53.58;100530.78;1775196;80;20932;-82
2021/08/21 07:59:56;;;;;;;3.60;3.22;;;;;;;27.89;52.33;100522.11;1775215;80;20940;-79
2021/08/21 08:02:23;;;;;;;4.08;3.67;;;;;;;28.16;51.74;100523.95;1775073;80;21793;-77
2021/08/21 08:04:50;;;;;;;7.10;4.50;;;;;;;28.32;51.11;100530.23;1775139;80;20971;-77
2021/08/21 08:07:17;;;;;;;5.03;3.62;;;;;;;28.46;50.44;100527.00;1775343;80;20935;-75
2021/08/21 08:09:44;;;;;;;4.95;3.75;;;;;;;28.47;49.87;100517.86;1775342;80;20936;-77
2021/08/21 08:12:12;;;;;;;8.35;3.25;;;;;;;28.45;49.51;100519.94;1775276;80;21062;-78
2021/08/21 08:14:39;;;;;;;4.30;3.55;;;;;;;28.41;49.81;100514.13;1775246;80;21088;-75
2021/08/21 08:17:08;;;;;;;5.83;3.72;;;;;;;28.39;49.83;100515.37;1775171;80;20987;-72
2021/08/21 08:19:37;;;;;;;5.17;3.35;;;;;;;28.41;50.08;100512.77;1775168;80;20880;-76
2021/08/21 08:22:05;;;;;;;4.45;4.03;;;;;;;28.52;49.76;100515.37;1775266;80;20893;-77
2021/08/21 08:24:33;;;;;;;6.53;3.60;;;;;;;28.68;48.87;100514.91;1775648;80;20892;-77
2021/08/21 08:27:00;;;;;;;4.08;3.58;;;;;;;29.00;49.17;100516.31;1775487;80;21470;-77
2021/08/21 08:29:27;;;;;;;6.03;3.37;;;;;;;29.35;47.98;100521.34;1775262;80;20964;-75
2021/08/21 08:31:54;;;;;;;4.72;3.55;;;;;;;29.72;47.54;100510.14;1775512;80;20841;-76
2021/08/21 08:34:21;;;;;;;4.15;3.50;;;;;;;30.08;46.94;100509.08;1775260;80;20885;-77
2021/08/21 08:36:48;;;;;;;3.50;3.20;;;;;;;30.42;45.91;100506.91;1775568;80;20956;-77
2021/08/21 08:39:15;;;;;;;9.68;3.80;;;;;;;30.72;45.04;100507.75;1775185;80;21177;-78
2021/08/21 08:41:42;;;;;;;7.60;3.62;;;;;;;31.06;44.47;100511.40;1775485;80;20963;-76
2021/08/21 08:44:15;;;;;;;6.58;3.50;;;;;;;31.35;43.63;100515.16;1775228;80;21013;-77
2021/08/21 08:46:41;;;;;;;5.30;3.27;;;;;;;31.56;42.71;100515.98;1775797;80;20893;-81
2021/08/21 08:49:09;;;;;;;5.37;3.62;;;;;;;31.81;42.46;100508.98;1753714;80;21003;-73
2021/08/21 08:51:36;;;;;;;7.95;3.90;;;;;;;32.04;42.04;100510.09;1775513;80;21107;-78
2021/08/21 08:54:03;;;;;;;8.03;4.10;;;;;;;32.24;41.78;100502.94;1753517;80;20920;-79
2021/08/21 08:56:31;;;;;;;5.15;3.27;;;;;;;32.46;41.51;100506.34;1775264;80;20924;-80
2021/08/21 08:58:58;;;;;;;4.40;3.55;;;;;;;32.67;40.80;100507.64;1720275;80;20972;-80
2021/08/21 09:01:25;;;;;;;5.45;3.77;;;;;;;32.87;39.32;100505.84;1775498;80;20885;-80
2021/08/21 09:04:15;;;;;;;4.15;3.55;;;;;;;32.93;39.39;100506.21;1775562;80;21906;-81
2021/08/21 09:06:42;;;;;;;6.08;3.30;;;;;;;33.00;39.45;100503.66;1760600;80;20959;-78
2021/08/21 09:09:13;;;;;;;4.75;3.58;;;;;;;33.01;39.71;100503.11;1775268;80;20929;-76
2021/08/21 09:11:45;;;;;;;9.25;3.30;;;;;;;32.91;39.30;100506.48;1775525;80;20971;-76
2021/08/21 09:14:29;;;;;;;7.28;3.50;;;;;;;32.82;39.24;100502.50;1773033;80;20900;-79
2021/08/21 09:17:18;;;;;;;8.15;3.65;;;;;;;32.78;39.18;100505.41;1768009;81;20885;-81
2021/08/21 09:19:46;;;;;;;4.60;3.30;;;;;;;32.74;39.17;100506.41;1757561;81;20924;-79
2021/08/21 09:22:13;;;;;;;4.40;3.62;;;;;;;32.75;38.87;100501.29;1768321;81;20931;-78
2021/08/21 09:24:41;;;;;;;7.40;3.70;;;;;;;32.82;39.03;100501.96;1767996;81;20983;-77
2021/08/21 09:27:23;;;;;;;4.33;3.37;;;;;;;32.85;39.17;100503.91;1768384;80;21512;-78
2021/08/21 09:30:17;;;;;;;6.80;3.77;;;;;;;32.90;39.02;100501.28;1762591;81;21139;-78
2021/08/21 09:32:45;;;;;;;6.08;3.77;;;;;;;32.98;38.55;100501.71;1768001;81;21403;-79
2021/08/21 09:37:58;;;;;;;3.75;3.45;;;;;;;33.03;39.01;100500.98;1703893;84;20931;-75
2021/08/21 09:40:31;;;;;;;5.12;3.25;;;;;;;33.06;39.12;100510.56;1704840;83;20903;-76
2021/08/21 09:42:59;;;;;;;5.65;3.87;;;;;;;33.03;38.77;100509.95;1705180;83;21184;-76
2021/08/21 09:45:25;;;;;;;4.03;3.58;;;;;;;33.02;38.03;100509.67;1705145;84;20868;-78
2021/08/21 09:48:05;;;;;;;3.60;3.27;;;;;;;33.07;38.59;100505.44;1705286;83;21015;-76
2021/08/21 09:50:35;;;;;;;4.55;3.70;;;;;;;33.14;37.70;100504.74;1705134;83;20994;-77
2021/08/21 09:53:08;;;;;;;5.17;3.42;;;;;;;33.17;37.85;100506.95;1705432;84;21648;-78
2021/08/21 09:55:36;;;;;;;3.80;3.35;;;;;;;33.16;38.10;100500.70;1704862;83;21365;-77
2021/08/21 09:58:09;;;;;;;7.45;3.67;;;;;;;33.30;38.07;100502.56;1704913;83;20987;-78
2021/08/21 10:00:38;;;;;;;;;;;;;;;33.36;38.53;100496.16;1707647;83;20903;-78
2021/08/21 10:03:05;;;;;;;4.87;3.58;;;;;;;33.45;38.39;100504.19;1704812;83;20105;-78
2021/08/21 10:05:32;;;;;;;5.37;3.70;;;;;;;33.59;38.02;100506.06;1705087;83;20904;-78
2021/08/21 10:08:09;;;;;;;3.25;3.05;;;;;;;33.62;37.15;100512.39;1720088;81;21521;-79
2021/08/21 10:10:38;;;;;;;5.62;2.90;;;;;;;33.60;37.53;100510.45;1767541;81;20849;-78
2021/08/21 10:13:18;;;;;;;3.42;3.15;;;;;;;33.67;37.42;100510.83;1768119;81;20936;-76
2021/08/21 10:15:41;;;;;;;4.55;3.33;;;;;;;33.71;37.21;100509.27;1767045;81;20896;-76
2021/08/21 10:18:09;;;;;;;4.08;3.65;;;;;;;33.74;37.46;100506.84;1768087;81;20984;-78
2021/08/21 10:20:39;;;;;;;6.47;3.90;;;;;;;33.97;36.93;100507.72;1768055;81;21153;-78
2021/08/21 10:23:12;;;;;;;4.40;3.62;;;;;;;34.09;36.37;100510.36;1768242;80;20837;-76
2021/08/21 10:25:50;;;;;;;3.80;3.45;;;;;;;33.95;36.02;100510.72;1767128;81;20893;-76
2021/08/21 10:28:16;;;;;;;5.75;3.80;;;;;;;33.88;36.13;100501.06;1767791;81;20936;-75
2021/08/21 10:30:48;;;;;;;4.70;3.50;;;;;;;33.74;36.63;100500.59;1768216;81;21021;-75
2021/08/21 10:33:14;;;;;;;4.83;4.37;;;;;;;33.84;37.20;100511.64;1768251;81;21135;-75
2021/08/21 10:35:54;;;;;;;5.28;3.80;;;;;;;33.93;37.39;100506.05;1768070;81;21029;-75
2021/08/21 10:38:34;;;;;;;8.28;4.17;;;;;;;33.93;36.95;100509.29;1768017;81;20924;-76
2021/08/21 10:41:15;;;;;;;7.60;4.37;;;;;;;33.66;37.34;100508.62;1768339;81;20932;-76
2021/08/21 10:43:53;;;;;;;7.50;3.75;;;;;;;33.37;37.48;100508.69;1768447;81;21430;-76
2021/08/21 10:46:35;;;;;;;4.92;3.85;;;;;;;33.16;37.34;100506.14;1768171;81;21084;-75
2021/08/21 10:49:08;;;;;;;5.83;3.67;;;;;;;33.10;37.73;100504.94;1768266;81;20857;-75
2021/08/21 10:51:45;;;;;;;6.15;3.62;;;;;;;33.19;37.59;100504.28;1767900;81;20877;-74
2021/08/21 10:54:33;;;;;;;5.00;3.47;;;;;;;33.20;37.31;100507.84;1768317;81;21347;-74
2021/08/21 10:57:27;;;;;;;5.75;3.85;;;;;;;33.05;37.07;100512.43;1768069;81;20984;-74
2021/08/21 10:59:54;;;;;;;4.80;4.03;;;;;;;32.68;37.22;100508.73;1768235;80;21130;-74
2021/08/21 11:02:29;;;;;;;7.08;4.47;;;;;;;32.25;38.04;100508.64;1768357;81;20932;-75
2021/08/21 11:04:56;;;;;;;7.50;3.52;;;;;;;31.94;38.94;100506.56;1768059;80;20912;-73
2021/08/21 11:07:43;;;;;;;7.28;4.60;;;;;;;31.77;39.08;100513.25;1768063;81;20916;-74
2021/08/21 11:10:23;;;;;;;5.33;3.98;;;;;;;31.67;38.55;100510.28;1768075;80;21421;-75
2021/08/21 11:12:53;;;;;;;6.25;3.95;;;;;;;31.58;38.99;100509.80;1768060;81;21995;-75
2021/08/21 11:15:22;;;;;;;4.70;4.20;;;;;;;31.68;39.28;100505.67;1767953;80;20936;-76
2021/08/21 11:17:49;;;;;;;7.42;4.35;;;;;;;31.84;39.66;100501.43;1768249;81;20936;-75
2021/08/21 11:20:30;;;;;;;8.23;4.20;;;;;;;32.13;39.23;100503.78;1768059;81;20881;-78
2021/08/21 11:23:11;;;;;;;7.60;4.70;;;;;;;32.38;38.50;100505.66;1768625;81;20959;-77
2021/08/21 11:25:40;;;;;;;5.53;4.08;;;;;;;32.57;38.19;100508.23;1768343;80;21128;-75
2021/08/21 11:28:20;;;;;;;5.12;4.55;;;;;;;32.53;37.50;100502.48;1768295;80;20976;-75
2021/08/21 11:30:40;;;;;;;6.70;4.47;;;;;;;32.46;37.44;100510.42;1765094;81;21493;-76
2021/08/21 11:33:12;;;;;;;8.90;4.97;;;;;;;32.37;37.70;100505.39;1767987;80;20987;-74
2021/08/21 11:35:50;;;;;;;4.92;4.12;;;;;;;32.20;37.55;100510.71;1768184;81;20917;-76